2026/08/26

Sensor Date Temp./Hum.
h3-hermonville 26-08-2026 - 23:59 22.5°C / 66.5%
h4-hermonville 26-08-2026 - 23:58 22.4°C / 65%
h2-hermonville 26-08-2026 - 23:53 21.9°C / 69%
h1-hermonville 26-08-2026 - 23:53 21.2°C / 72%
h3-hermonville 26-08-2026 - 23:49 22.5°C / 66.5%
h4-hermonville 26-08-2026 - 23:48 22.5°C / 65%
h2-hermonville 26-08-2026 - 23:43 21.9°C / 69%
h3-hermonville 26-08-2026 - 23:39 22.6°C / 65%
h4-hermonville 26-08-2026 - 23:38 22.6°C / 64.5%
h2-hermonville 26-08-2026 - 23:33 22.1°C / 68%
h3-hermonville 26-08-2026 - 23:29 22.8°C / 65%
h4-hermonville 26-08-2026 - 23:28 22.7°C / 64.5%
h2-hermonville 26-08-2026 - 23:23 22.3°C / 67.5%
h1-hermonville 26-08-2026 - 23:23 21.6°C / 70%
h3-hermonville 26-08-2026 - 23:19 22.8°C / 65%
h4-hermonville 26-08-2026 - 23:18 22.8°C / 64%
h2-hermonville 26-08-2026 - 23:13 22.4°C / 67%
h3-hermonville 26-08-2026 - 23:09 23.1°C / 64%
h4-hermonville 26-08-2026 - 23:08 22.9°C / 63.5%
h1-hermonville 26-08-2026 - 23:03 21.8°C / 68.5%
h3-hermonville 26-08-2026 - 22:59 23°C / 64%
h4-hermonville 26-08-2026 - 22:58 23.1°C / 63.5%
h2-hermonville 26-08-2026 - 22:53 22.6°C / 66%
h1-hermonville 26-08-2026 - 22:53 22.2°C / 67.5%
h3-hermonville 26-08-2026 - 22:49 23°C / 63.5%
h4-hermonville 26-08-2026 - 22:48 23.1°C / 62.5%
h3-hermonville 26-08-2026 - 22:39 23°C / 63.5%
h4-hermonville 26-08-2026 - 22:38 23.2°C / 62%
h3-hermonville 26-08-2026 - 22:29 23°C / 63.5%
h4-hermonville 26-08-2026 - 22:28 23.3°C / 62%
h2-hermonville 26-08-2026 - 22:23 23.4°C / 64%
h3-hermonville 26-08-2026 - 22:19 23.5°C / 62%
h4-hermonville 26-08-2026 - 22:18 23.3°C / 61.5%
h2-hermonville 26-08-2026 - 22:13 23.3°C / 63%
h3-hermonville 26-08-2026 - 22:09 23.5°C / 61.5%
h4-hermonville 26-08-2026 - 22:08 23.5°C / 61.5%
h2-hermonville 26-08-2026 - 22:03 23.3°C / 63%
h3-hermonville 26-08-2026 - 21:59 23.7°C / 61%
h4-hermonville 26-08-2026 - 21:58 23.8°C / 61%
h2-hermonville 26-08-2026 - 21:53 23.5°C / 63%
h1-hermonville 26-08-2026 - 21:53 23.1°C / 64.5%
h3-hermonville 26-08-2026 - 21:49 23.8°C / 61.5%
h2-hermonville 26-08-2026 - 21:43 24°C / 62.5%
h1-hermonville 26-08-2026 - 21:43 23.1°C / 65%
h3-hermonville 26-08-2026 - 21:39 24°C / 61.5%
h4-hermonville 26-08-2026 - 21:38 24.1°C / 60.5%
h2-hermonville 26-08-2026 - 21:33 24.3°C / 62%
h1-hermonville 26-08-2026 - 21:33 23.5°C / 64.5%
h3-hermonville 26-08-2026 - 21:29 24.3°C / 61%
h4-hermonville 26-08-2026 - 21:28 24.3°C / 60%
h2-hermonville 26-08-2026 - 21:23 24.4°C / 61%
h1-hermonville 26-08-2026 - 21:23 23.2°C / 64%
h3-hermonville 26-08-2026 - 21:19 24.7°C / 59.5%
h4-hermonville 26-08-2026 - 21:18 24.3°C / 59.5%
h2-hermonville 26-08-2026 - 21:13 24.6°C / 61.5%
h3-hermonville 26-08-2026 - 21:09 24.8°C / 59%
h4-hermonville 26-08-2026 - 21:08 24.6°C / 59%
h2-hermonville 26-08-2026 - 21:03 24.5°C / 60%
h1-hermonville 26-08-2026 - 21:03 24.1°C / 61%
h3-hermonville 26-08-2026 - 20:59 25°C / 58%
h4-hermonville 26-08-2026 - 20:58 24.9°C / 58%
h2-hermonville 26-08-2026 - 20:53 24.8°C / 60%
h1-hermonville 26-08-2026 - 20:53 24.4°C / 60.5%
h3-hermonville 26-08-2026 - 20:49 25.3°C / 57.5%
h4-hermonville 26-08-2026 - 20:48 25°C / 58.5%
h2-hermonville 26-08-2026 - 20:43 25°C / 61%
h1-hermonville 26-08-2026 - 20:43 24.8°C / 60.5%
h3-hermonville 26-08-2026 - 20:39 25.8°C / 56.5%
h4-hermonville 26-08-2026 - 20:38 25.3°C / 56%
h2-hermonville 26-08-2026 - 20:33 24.7°C / 59.5%
h3-hermonville 26-08-2026 - 20:29 26.2°C / 55.5%
h4-hermonville 26-08-2026 - 20:28 25.6°C / 55%
h2-hermonville 26-08-2026 - 20:23 25°C / 58%
h1-hermonville 26-08-2026 - 20:23 25.4°C / 57.5%
h3-hermonville 26-08-2026 - 20:19 26.4°C / 54.5%
h2-hermonville 26-08-2026 - 20:13 24.5°C / 58.5%
h3-hermonville 26-08-2026 - 20:09 26.9°C / 50%
h2-hermonville 26-08-2026 - 20:03 24.8°C / 57.5%
h1-hermonville 26-08-2026 - 20:03 25.8°C / 53.5%
h3-hermonville 26-08-2026 - 19:59 26.9°C / 50%
h4-hermonville 26-08-2026 - 19:58 26.2°C / 51%
h2-hermonville 26-08-2026 - 19:53 25.1°C / 57%
h1-hermonville 26-08-2026 - 19:53 25.9°C / 53%
h3-hermonville 26-08-2026 - 19:49 27.2°C / 49.5%
h4-hermonville 26-08-2026 - 19:48 26.3°C / 51%
h2-hermonville 26-08-2026 - 19:43 25.3°C / 55.5%
h1-hermonville 26-08-2026 - 19:43 26°C / 53%
h3-hermonville 26-08-2026 - 19:39 27.2°C / 49%
h4-hermonville 26-08-2026 - 19:38 26.4°C / 50.5%
h2-hermonville 26-08-2026 - 19:33 25.5°C / 55%
h3-hermonville 26-08-2026 - 19:29 27.4°C / 48.5%
h4-hermonville 26-08-2026 - 19:28 26.7°C / 50%
h1-hermonville 26-08-2026 - 19:23 26.3°C / 52.5%
h3-hermonville 26-08-2026 - 19:19 27.5°C / 48.5%
h4-hermonville 26-08-2026 - 19:18 26.8°C / 50%
h1-hermonville 26-08-2026 - 19:13 26.2°C / 52.5%
h3-hermonville 26-08-2026 - 19:09 27.7°C / 48%
h4-hermonville 26-08-2026 - 19:08 27°C / 49%
h2-hermonville 26-08-2026 - 19:03 26°C / 53%
h1-hermonville 26-08-2026 - 19:03 26.4°C / 51.5%
h3-hermonville 26-08-2026 - 18:59 27.7°C / 47.5%
h4-hermonville 26-08-2026 - 18:58 27°C / 48.5%
h2-hermonville 26-08-2026 - 18:53 25.8°C / 54%
h1-hermonville 26-08-2026 - 18:53 26.5°C / 51.5%
h3-hermonville 26-08-2026 - 18:49 27.8°C / 47.5%
h4-hermonville 26-08-2026 - 18:48 27°C / 49%
h2-hermonville 26-08-2026 - 18:43 25.9°C / 54.5%
h1-hermonville 26-08-2026 - 18:43 26.7°C / 51.5%
h3-hermonville 26-08-2026 - 18:39 28°C / 47.5%
h4-hermonville 26-08-2026 - 18:38 27.1°C / 49%
h2-hermonville 26-08-2026 - 18:33 25.8°C / 54%
h1-hermonville 26-08-2026 - 18:33 26.8°C / 50.5%
h3-hermonville 26-08-2026 - 18:29 28°C / 47%
h4-hermonville 26-08-2026 - 18:28 27.1°C / 48.5%
h2-hermonville 26-08-2026 - 18:23 25.4°C / 54.5%
h1-hermonville 26-08-2026 - 18:23 26.8°C / 50.5%
h3-hermonville 26-08-2026 - 18:19 28°C / 46.5%
h4-hermonville 26-08-2026 - 18:18 27.2°C / 48%
h2-hermonville 26-08-2026 - 18:13 25.7°C / 54.5%
h3-hermonville 26-08-2026 - 18:09 28°C / 47%
h4-hermonville 26-08-2026 - 18:08 27.1°C / 48.5%
h2-hermonville 26-08-2026 - 18:03 25.7°C / 55%
h1-hermonville 26-08-2026 - 18:03 27.1°C / 49.5%
h3-hermonville 26-08-2026 - 17:59 28.2°C / 46.5%
h4-hermonville 26-08-2026 - 17:58 27.3°C / 48%
h2-hermonville 26-08-2026 - 17:53 26.6°C / 52.5%
h1-hermonville 26-08-2026 - 17:53 27.2°C / 50.5%
h3-hermonville 26-08-2026 - 17:49 28.2°C / 47%
h4-hermonville 26-08-2026 - 17:48 27.2°C / 49.5%
h2-hermonville 26-08-2026 - 17:43 26.3°C / 54.5%
h1-hermonville 26-08-2026 - 17:43 27.1°C / 51.5%
h3-hermonville 26-08-2026 - 17:39 28.2°C / 48%
h4-hermonville 26-08-2026 - 17:38 27.3°C / 49.5%
h2-hermonville 26-08-2026 - 17:33 26.6°C / 52.5%
h1-hermonville 26-08-2026 - 17:33 27.1°C / 51%
h3-hermonville 26-08-2026 - 17:29 28°C / 47.5%
h4-hermonville 26-08-2026 - 17:28 27.2°C / 49%
h2-hermonville 26-08-2026 - 17:23 27°C / 51.5%
h1-hermonville 26-08-2026 - 17:23 27.3°C / 50%
h3-hermonville 26-08-2026 - 17:19 28.1°C / 48%
h4-hermonville 26-08-2026 - 17:18 27.1°C / 50%
h2-hermonville 26-08-2026 - 17:13 27.3°C / 50.5%
h1-hermonville 26-08-2026 - 17:13 27.2°C / 50%
h3-hermonville 26-08-2026 - 17:09 27.9°C / 47.5%
h2-hermonville 26-08-2026 - 17:03 26.1°C / 54%
h1-hermonville 26-08-2026 - 17:03 27.8°C / 48.5%
h3-hermonville 26-08-2026 - 16:59 27.7°C / 48.5%
h4-hermonville 26-08-2026 - 16:58 27.3°C / 48.5%
h2-hermonville 26-08-2026 - 16:53 26.5°C / 54%
h1-hermonville 26-08-2026 - 16:53 27.8°C / 48.5%
h3-hermonville 26-08-2026 - 16:49 27.8°C / 48%
h4-hermonville 26-08-2026 - 16:48 27.1°C / 49%
h2-hermonville 26-08-2026 - 16:43 27.1°C / 52.5%
h1-hermonville 26-08-2026 - 16:43 27.5°C / 49%
h3-hermonville 26-08-2026 - 16:39 27.9°C / 47%
h4-hermonville 26-08-2026 - 16:38 26.9°C / 50.5%
h2-hermonville 26-08-2026 - 16:33 27.7°C / 51%
h1-hermonville 26-08-2026 - 16:33 27.2°C / 50.5%
h3-hermonville 26-08-2026 - 16:29 28.1°C / 48%
h2-hermonville 26-08-2026 - 16:23 27.7°C / 50%
h1-hermonville 26-08-2026 - 16:23 26.8°C / 52.5%
h3-hermonville 26-08-2026 - 16:19 28.1°C / 48.5%
h4-hermonville 26-08-2026 - 16:18 27.1°C / 51%
h2-hermonville 26-08-2026 - 16:13 27.8°C / 51.5%
h1-hermonville 26-08-2026 - 16:13 27.2°C / 52.5%
h3-hermonville 26-08-2026 - 16:09 28.5°C / 48%
h2-hermonville 26-08-2026 - 16:03 26.5°C / 55.5%
h1-hermonville 26-08-2026 - 16:03 27.3°C / 52%
h2-hermonville 26-08-2026 - 15:53 28°C / 52%
h1-hermonville 26-08-2026 - 15:53 26.6°C / 53%
h3-hermonville 26-08-2026 - 15:49 27.8°C / 50.5%
h4-hermonville 26-08-2026 - 15:48 27°C / 52.5%
h2-hermonville 26-08-2026 - 15:43 26.4°C / 56.5%
h1-hermonville 26-08-2026 - 15:43 26.3°C / 56.5%
h3-hermonville 26-08-2026 - 15:39 27.8°C / 51.5%
h4-hermonville 26-08-2026 - 15:38 27.2°C / 52.5%
h2-hermonville 26-08-2026 - 15:33 26.1°C / 57%
h1-hermonville 26-08-2026 - 15:33 26.5°C / 56.5%
h3-hermonville 26-08-2026 - 15:29 27.9°C / 52%
h4-hermonville 26-08-2026 - 15:28 26.8°C / 53.5%
h2-hermonville 26-08-2026 - 15:23 26.4°C / 56%
h1-hermonville 26-08-2026 - 15:23 26.1°C / 57%
h3-hermonville 26-08-2026 - 15:19 27.7°C / 51%
h4-hermonville 26-08-2026 - 15:18 26.8°C / 53.5%
h2-hermonville 26-08-2026 - 15:13 25.9°C / 58%
h1-hermonville 26-08-2026 - 15:13 26.1°C / 57%
h3-hermonville 26-08-2026 - 15:09 27.7°C / 52%
h4-hermonville 26-08-2026 - 15:08 26.7°C / 54%
h2-hermonville 26-08-2026 - 15:03 25.5°C / 59.5%
h1-hermonville 26-08-2026 - 15:03 26°C / 58.5%
h3-hermonville 26-08-2026 - 14:49 26.7°C / 57%
h2-hermonville 26-08-2026 - 14:43 25.3°C / 62%
h1-hermonville 26-08-2026 - 14:43 25.4°C / 61.5%
h3-hermonville 26-08-2026 - 14:39 26.5°C / 57.5%
h2-hermonville 26-08-2026 - 14:33 24.8°C / 64.5%
h1-hermonville 26-08-2026 - 14:33 25.4°C / 62%
h3-hermonville 26-08-2026 - 14:29 25.9°C / 60%
h4-hermonville 26-08-2026 - 14:27 25.9°C / 58.5%
h3-hermonville 26-08-2026 - 14:19 25.8°C / 61%
h4-hermonville 26-08-2026 - 14:17 25.9°C / 59.5%
h2-hermonville 26-08-2026 - 14:13 24.3°C / 66.5%
h3-hermonville 26-08-2026 - 14:09 25.6°C / 61.5%
h4-hermonville 26-08-2026 - 14:07 25.6°C / 60.5%
h2-hermonville 26-08-2026 - 14:03 23.9°C / 67%
h1-hermonville 26-08-2026 - 14:03 24.7°C / 65%
h3-hermonville 26-08-2026 - 13:59 25.9°C / 60.5%
h1-hermonville 26-08-2026 - 13:53 24.4°C / 65.5%
h3-hermonville 26-08-2026 - 13:49 25.5°C / 61.5%
h2-hermonville 26-08-2026 - 13:43 23.4°C / 69.5%
h1-hermonville 26-08-2026 - 13:43 24.2°C / 66.5%
h3-hermonville 26-08-2026 - 13:39 25.2°C / 64%
h2-hermonville 26-08-2026 - 13:33 23.3°C / 70%
h1-hermonville 26-08-2026 - 13:33 24.1°C / 68%
h3-hermonville 26-08-2026 - 13:29 24.6°C / 65%
h4-hermonville 26-08-2026 - 13:27 25.1°C / 61.5%
h2-hermonville 26-08-2026 - 13:23 23.3°C / 70%
h1-hermonville 26-08-2026 - 13:23 24.1°C / 66.5%
h3-hermonville 26-08-2026 - 13:19 25.1°C / 64%
h4-hermonville 26-08-2026 - 13:17 25.5°C / 61%
h2-hermonville 26-08-2026 - 13:13 22.7°C / 73%
h1-hermonville 26-08-2026 - 13:13 24.3°C / 68%
h3-hermonville 26-08-2026 - 13:09 24.7°C / 67%
h4-hermonville 26-08-2026 - 13:07 25.3°C / 63%
h2-hermonville 26-08-2026 - 13:03 22.6°C / 73%
h1-hermonville 26-08-2026 - 13:03 24.1°C / 68.5%
h3-hermonville 26-08-2026 - 12:59 24.5°C / 66.5%
h2-hermonville 26-08-2026 - 12:53 22.6°C / 73%
h1-hermonville 26-08-2026 - 12:53 24.4°C / 68%
h3-hermonville 26-08-2026 - 12:49 24.8°C / 66%
h4-hermonville 26-08-2026 - 12:47 26°C / 61%
h1-hermonville 26-08-2026 - 12:43 24.6°C / 69%
h3-hermonville 26-08-2026 - 12:39 25.1°C / 66%
h2-hermonville 26-08-2026 - 12:33 22.6°C / 73%
h1-hermonville 26-08-2026 - 12:33 24.1°C / 69.5%
h3-hermonville 26-08-2026 - 12:29 24.8°C / 67.5%
h2-hermonville 26-08-2026 - 12:23 22.5°C / 73%
h1-hermonville 26-08-2026 - 12:23 23.6°C / 71%
h3-hermonville 26-08-2026 - 12:19 24.3°C / 68.5%
h4-hermonville 26-08-2026 - 12:17 25.4°C / 63%
h2-hermonville 26-08-2026 - 12:13 22.7°C / 73%
h3-hermonville 26-08-2026 - 12:09 24.2°C / 68.5%
h4-hermonville 26-08-2026 - 12:07 25.6°C / 62.5%
h2-hermonville 26-08-2026 - 12:03 23°C / 72%
h1-hermonville 26-08-2026 - 12:03 23.4°C / 72%
h3-hermonville 26-08-2026 - 11:59 24.4°C / 67.5%
h4-hermonville 26-08-2026 - 11:57 26°C / 60.5%
h2-hermonville 26-08-2026 - 11:53 22.6°C / 73%
h1-hermonville 26-08-2026 - 11:53 23.5°C / 71.5%
h3-hermonville 26-08-2026 - 11:49 24.4°C / 68.5%
h4-hermonville 26-08-2026 - 11:47 26.1°C / 62%
h2-hermonville 26-08-2026 - 11:43 22.5°C / 72.5%
h1-hermonville 26-08-2026 - 11:43 23.2°C / 73%
h3-hermonville 26-08-2026 - 11:39 23.6°C / 71%
h2-hermonville 26-08-2026 - 11:33 22.9°C / 73%
h1-hermonville 26-08-2026 - 11:33 23.1°C / 73.5%
h3-hermonville 26-08-2026 - 11:29 23.6°C / 71%
h2-hermonville 26-08-2026 - 11:23 23°C / 72.5%
h1-hermonville 26-08-2026 - 11:23 23°C / 74%
h3-hermonville 26-08-2026 - 11:19 23.4°C / 71%
h1-hermonville 26-08-2026 - 11:13 22.9°C / 74%
h3-hermonville 26-08-2026 - 11:09 23.5°C / 71%
h4-hermonville 26-08-2026 - 11:07 26.8°C / 58.5%
h2-hermonville 26-08-2026 - 11:03 22.6°C / 74.5%
h1-hermonville 26-08-2026 - 11:03 22.8°C / 74%
h3-hermonville 26-08-2026 - 10:59 23.5°C / 71.5%
h2-hermonville 26-08-2026 - 10:53 22.4°C / 75%
h1-hermonville 26-08-2026 - 10:53 22.7°C / 75%
h3-hermonville 26-08-2026 - 10:49 23.2°C / 72.5%
h2-hermonville 26-08-2026 - 10:43 22.1°C / 75.5%
h1-hermonville 26-08-2026 - 10:43 22.3°C / 75.5%
h3-hermonville 26-08-2026 - 10:39 22.7°C / 73.5%
h1-hermonville 26-08-2026 - 10:33 22.2°C / 75.5%
h3-hermonville 26-08-2026 - 10:29 22.4°C / 74.5%
h2-hermonville 26-08-2026 - 10:23 21.5°C / 76.5%
h1-hermonville 26-08-2026 - 10:23 21.8°C / 77%
h3-hermonville 26-08-2026 - 10:19 22°C / 75%
h4-hermonville 26-08-2026 - 10:17 29.9°C / 50%
h2-hermonville 26-08-2026 - 10:13 21.5°C / 75.5%
h1-hermonville 26-08-2026 - 10:13 21.4°C / 79%
h3-hermonville 26-08-2026 - 10:09 21.6°C / 76%
h2-hermonville 26-08-2026 - 10:03 21.2°C / 76.5%
h1-hermonville 26-08-2026 - 10:03 20.9°C / 80%
h3-hermonville 26-08-2026 - 09:59 21.3°C / 77%
h2-hermonville 26-08-2026 - 09:53 21°C / 77%
h1-hermonville 26-08-2026 - 09:53 20.4°C / 80.5%
h3-hermonville 26-08-2026 - 09:49 21°C / 77%
h2-hermonville 26-08-2026 - 09:43 20.7°C / 78%
h1-hermonville 26-08-2026 - 09:43 19.9°C / 83.5%
h3-hermonville 26-08-2026 - 09:39 20.6°C / 78.5%
h2-hermonville 26-08-2026 - 09:33 20.4°C / 78.5%
h1-hermonville 26-08-2026 - 09:33 19.3°C / 85%
h3-hermonville 26-08-2026 - 09:29 20.3°C / 78.5%
h2-hermonville 26-08-2026 - 09:23 20.1°C / 79.5%
h1-hermonville 26-08-2026 - 09:23 19°C / 86%
h3-hermonville 26-08-2026 - 09:19 20°C / 78.5%
h4-hermonville 26-08-2026 - 09:17 24.4°C / 63.5%
h2-hermonville 26-08-2026 - 09:13 19.7°C / 80%
h1-hermonville 26-08-2026 - 09:13 18.8°C / 85.5%
h3-hermonville 26-08-2026 - 09:09 20°C / 79.5%
h2-hermonville 26-08-2026 - 09:03 19.6°C / 81.5%
h1-hermonville 26-08-2026 - 09:03 18.5°C / 87%
h3-hermonville 26-08-2026 - 08:59 19.7°C / 80.5%
h2-hermonville 26-08-2026 - 08:53 19.6°C / 80.5%
h1-hermonville 26-08-2026 - 08:53 18.1°C / 89%
h3-hermonville 26-08-2026 - 08:49 19.3°C / 80%
h2-hermonville 26-08-2026 - 08:43 19.3°C / 80.5%
h3-hermonville 26-08-2026 - 08:39 19.2°C / 80.5%
h2-hermonville 26-08-2026 - 08:33 19°C / 81%
h1-hermonville 26-08-2026 - 08:33 17.5°C / 90%
h3-hermonville 26-08-2026 - 08:29 18.9°C / 80.5%
h2-hermonville 26-08-2026 - 08:23 19°C / 81%
h1-hermonville 26-08-2026 - 08:23 17.3°C / 90.5%
h3-hermonville 26-08-2026 - 08:19 18.8°C / 80.5%
h4-hermonville 26-08-2026 - 08:17 18.3°C / 83%
h2-hermonville 26-08-2026 - 08:13 18.5°C / 83%
h1-hermonville 26-08-2026 - 08:13 17.2°C / 90%
h3-hermonville 26-08-2026 - 08:09 18.6°C / 81.5%
h2-hermonville 26-08-2026 - 08:03 18.5°C / 82.5%
h1-hermonville 26-08-2026 - 08:03 17.2°C / 89.5%
h3-hermonville 26-08-2026 - 07:59 18.4°C / 82%
h4-hermonville 26-08-2026 - 07:57 18.1°C / 83.5%
h2-hermonville 26-08-2026 - 07:53 18.4°C / 83%
h1-hermonville 26-08-2026 - 07:53 17.3°C / 89.5%
h3-hermonville 26-08-2026 - 07:49 18.1°C / 83%
h4-hermonville 26-08-2026 - 07:47 18°C / 83%
h2-hermonville 26-08-2026 - 07:43 18.1°C / 83%
h3-hermonville 26-08-2026 - 07:39 17.8°C / 84.5%
h2-hermonville 26-08-2026 - 07:33 18.1°C / 83%
h1-hermonville 26-08-2026 - 07:33 16.9°C / 89.5%
h3-hermonville 26-08-2026 - 07:29 17.8°C / 84.5%
h2-hermonville 26-08-2026 - 07:23 18.1°C / 83.5%
h1-hermonville 26-08-2026 - 07:23 16.9°C / 90%
h3-hermonville 26-08-2026 - 07:19 17.5°C / 85.5%
h2-hermonville 26-08-2026 - 07:13 17.9°C / 83%
h1-hermonville 26-08-2026 - 07:13 16.6°C / 90.5%
h3-hermonville 26-08-2026 - 07:09 17.6°C / 84.5%
h4-hermonville 26-08-2026 - 07:07 17.6°C / 83%
h2-hermonville 26-08-2026 - 07:03 17.8°C / 83%
h1-hermonville 26-08-2026 - 07:03 16.5°C / 90%
h4-hermonville 26-08-2026 - 06:57 17.4°C / 83.5%
h2-hermonville 26-08-2026 - 06:53 17.7°C / 83.5%
h1-hermonville 26-08-2026 - 06:53 16.5°C / 89.5%
h4-hermonville 26-08-2026 - 06:47 17.6°C / 82.5%
h2-hermonville 26-08-2026 - 06:43 17.8°C / 82.5%
h1-hermonville 26-08-2026 - 06:43 16.7°C / 89.5%
h3-hermonville 26-08-2026 - 06:39 17.4°C / 85%
h2-hermonville 26-08-2026 - 06:33 17.9°C / 82.5%
h1-hermonville 26-08-2026 - 06:33 16.4°C / 91%
h3-hermonville 26-08-2026 - 06:29 17.4°C / 84%
h2-hermonville 26-08-2026 - 06:23 18°C / 82%
h1-hermonville 26-08-2026 - 06:23 16.4°C / 90.5%
h3-hermonville 26-08-2026 - 06:19 17.6°C / 84%
h2-hermonville 26-08-2026 - 06:13 18°C / 82%
h1-hermonville 26-08-2026 - 06:13 16.5°C / 90%
h3-hermonville 26-08-2026 - 06:09 17.6°C / 83.5%
h4-hermonville 26-08-2026 - 06:07 17.7°C / 82%
h2-hermonville 26-08-2026 - 06:03 18.1°C / 81.5%
h1-hermonville 26-08-2026 - 06:03 16.6°C / 89%
h3-hermonville 26-08-2026 - 05:59 17.6°C / 83.5%
h4-hermonville 26-08-2026 - 05:57 17.6°C / 82.5%
h2-hermonville 26-08-2026 - 05:53 18°C / 82.5%
h1-hermonville 26-08-2026 - 05:53 16.8°C / 88%
h3-hermonville 26-08-2026 - 05:49 17.5°C / 84%
h4-hermonville 26-08-2026 - 05:47 17.7°C / 82.5%
h2-hermonville 26-08-2026 - 05:43 18°C / 82%
h1-hermonville 26-08-2026 - 05:43 16.8°C / 88.5%
h3-hermonville 26-08-2026 - 05:39 17.7°C / 83%
h2-hermonville 26-08-2026 - 05:33 18°C / 82.5%
h1-hermonville 26-08-2026 - 05:33 17°C / 88%
h3-hermonville 26-08-2026 - 05:29 17.7°C / 83.5%
h2-hermonville 26-08-2026 - 05:23 18°C / 82.5%
h1-hermonville 26-08-2026 - 05:23 16.9°C / 87.5%
h3-hermonville 26-08-2026 - 05:19 17.8°C / 83%
h2-hermonville 26-08-2026 - 05:13 18°C / 82.5%
h1-hermonville 26-08-2026 - 05:13 17.5°C / 85%
h3-hermonville 26-08-2026 - 05:09 17.6°C / 84%
h4-hermonville 26-08-2026 - 05:07 17.7°C / 82.5%
h2-hermonville 26-08-2026 - 05:03 18°C / 82%
h1-hermonville 26-08-2026 - 05:03 17.1°C / 86.5%
h3-hermonville 26-08-2026 - 04:59 17.9°C / 82.5%
h4-hermonville 26-08-2026 - 04:57 17.6°C / 83%
h2-hermonville 26-08-2026 - 04:53 18.2°C / 81.5%
h1-hermonville 26-08-2026 - 04:53 16.8°C / 88.5%
h3-hermonville 26-08-2026 - 04:49 17.7°C / 83%
h4-hermonville 26-08-2026 - 04:47 17.6°C / 83%
h2-hermonville 26-08-2026 - 04:43 18.2°C / 81.5%
h1-hermonville 26-08-2026 - 04:43 16.8°C / 88.5%
h2-hermonville 26-08-2026 - 04:33 18.1°C / 81.5%
h1-hermonville 26-08-2026 - 04:33 16.9°C / 88%
h2-hermonville 26-08-2026 - 04:23 18°C / 82%
h1-hermonville 26-08-2026 - 04:23 17.2°C / 87%
h3-hermonville 26-08-2026 - 04:19 17.8°C / 82%
h2-hermonville 26-08-2026 - 04:13 18.2°C / 81%
h1-hermonville 26-08-2026 - 04:13 17°C / 87.5%
h3-hermonville 26-08-2026 - 04:09 17.8°C / 82%
h4-hermonville 26-08-2026 - 04:07 17.4°C / 84%
h2-hermonville 26-08-2026 - 04:03 18.3°C / 80.5%
h1-hermonville 26-08-2026 - 04:03 16.5°C / 89.5%
h3-hermonville 26-08-2026 - 03:59 18.4°C / 79.5%
h4-hermonville 26-08-2026 - 03:57 17.3°C / 85%
h2-hermonville 26-08-2026 - 03:53 18.7°C / 79.5%
h1-hermonville 26-08-2026 - 03:53 16.6°C / 89.5%
h3-hermonville 26-08-2026 - 03:49 18.5°C / 79.5%
h4-hermonville 26-08-2026 - 03:47 17.2°C / 84.5%
h2-hermonville 26-08-2026 - 03:43 18.6°C / 80%
h1-hermonville 26-08-2026 - 03:43 16.6°C / 89.5%
h3-hermonville 26-08-2026 - 03:39 18.4°C / 79.5%
h2-hermonville 26-08-2026 - 03:33 18.5°C / 80%
h1-hermonville 26-08-2026 - 03:33 16.6°C / 89%
h3-hermonville 26-08-2026 - 03:29 18.2°C / 81%
h2-hermonville 26-08-2026 - 03:23 18.4°C / 80%
h1-hermonville 26-08-2026 - 03:23 16.8°C / 89%
h3-hermonville 26-08-2026 - 03:19 18.4°C / 80.5%
h2-hermonville 26-08-2026 - 03:13 18.6°C / 80%
h1-hermonville 26-08-2026 - 03:13 16.8°C / 89%
h3-hermonville 26-08-2026 - 03:09 18.6°C / 78.5%
h4-hermonville 26-08-2026 - 03:08 17.4°C / 84.5%
h2-hermonville 26-08-2026 - 03:03 18.7°C / 79%
h1-hermonville 26-08-2026 - 03:03 17°C / 88%
h3-hermonville 26-08-2026 - 02:59 18.5°C / 79%
h4-hermonville 26-08-2026 - 02:58 17.6°C / 84%
h2-hermonville 26-08-2026 - 02:53 18.7°C / 79%
h1-hermonville 26-08-2026 - 02:53 16.9°C / 89%
h3-hermonville 26-08-2026 - 02:49 18.6°C / 78.5%
h2-hermonville 26-08-2026 - 02:43 18.7°C / 79%
h1-hermonville 26-08-2026 - 02:43 16.8°C / 88.5%
h3-hermonville 26-08-2026 - 02:39 18.6°C / 78%
h2-hermonville 26-08-2026 - 02:33 18.8°C / 79%
h1-hermonville 26-08-2026 - 02:33 16.8°C / 88%
h3-hermonville 26-08-2026 - 02:29 18.6°C / 79%
h2-hermonville 26-08-2026 - 02:23 18.8°C / 78.5%
h1-hermonville 26-08-2026 - 02:23 17.1°C / 87.5%
h3-hermonville 26-08-2026 - 02:19 18.5°C / 79.5%
h4-hermonville 26-08-2026 - 02:18 17.7°C / 83%
h2-hermonville 26-08-2026 - 02:13 18.8°C / 78%
h1-hermonville 26-08-2026 - 02:13 16.9°C / 87.5%
h3-hermonville 26-08-2026 - 02:09 18.6°C / 78.5%
h2-hermonville 26-08-2026 - 02:03 19°C / 78%
h1-hermonville 26-08-2026 - 02:03 17.1°C / 87.5%
h3-hermonville 26-08-2026 - 01:59 18.7°C / 77.5%
h4-hermonville 26-08-2026 - 01:58 17.6°C / 83.5%
h2-hermonville 26-08-2026 - 01:53 19.3°C / 76.5%
h1-hermonville 26-08-2026 - 01:53 16.9°C / 87%
h3-hermonville 26-08-2026 - 01:49 19°C / 77%
h2-hermonville 26-08-2026 - 01:43 19.5°C / 75.5%
h1-hermonville 26-08-2026 - 01:43 17.2°C / 86%
h3-hermonville 26-08-2026 - 01:39 19.2°C / 76.5%
h4-hermonville 26-08-2026 - 01:38 17.4°C / 84%
h2-hermonville 26-08-2026 - 01:33 19.7°C / 74.5%
h1-hermonville 26-08-2026 - 01:33 17.3°C / 86%
h2-hermonville 26-08-2026 - 01:23 20.1°C / 74%
h1-hermonville 26-08-2026 - 01:23 17.5°C / 85%
h3-hermonville 26-08-2026 - 01:19 19.1°C / 76.5%
h4-hermonville 26-08-2026 - 01:18 17.6°C / 83.5%
h2-hermonville 26-08-2026 - 01:13 20.1°C / 73.5%
h1-hermonville 26-08-2026 - 01:13 17.7°C / 84%
h3-hermonville 26-08-2026 - 01:09 19.2°C / 76%
h2-hermonville 26-08-2026 - 01:03 20.2°C / 73%
h1-hermonville 26-08-2026 - 01:03 17.6°C / 84%
h3-hermonville 26-08-2026 - 00:59 19.3°C / 75.5%
h4-hermonville 26-08-2026 - 00:58 17.6°C / 83.5%
h2-hermonville 26-08-2026 - 00:53 20.2°C / 73%
h3-hermonville 26-08-2026 - 00:49 19.3°C / 75.5%
h2-hermonville 26-08-2026 - 00:43 20.3°C / 73%
h1-hermonville 26-08-2026 - 00:43 17.6°C / 84.5%
h3-hermonville 26-08-2026 - 00:39 19.4°C / 75.5%
h4-hermonville 26-08-2026 - 00:38 17.7°C / 83%
h2-hermonville 26-08-2026 - 00:33 20.3°C / 73%
h1-hermonville 26-08-2026 - 00:33 17.6°C / 84%
h3-hermonville 26-08-2026 - 00:29 19.5°C / 75%
h2-hermonville 26-08-2026 - 00:23 20.3°C / 73%
h1-hermonville 26-08-2026 - 00:23 17.7°C / 84%
h3-hermonville 26-08-2026 - 00:19 19.5°C / 75%
h2-hermonville 26-08-2026 - 00:13 20.2°C / 73.5%
h1-hermonville 26-08-2026 - 00:13 18°C / 82.5%
h3-hermonville 26-08-2026 - 00:09 19.7°C / 74.5%
h2-hermonville 26-08-2026 - 00:03 20.3°C / 73.5%
h1-hermonville 26-08-2026 - 00:03 18°C / 83%